createdAt,value
2023-05-20T00:00:24.154Z,66.23
2023-05-20T00:01:46.899Z,66.32
2023-05-20T00:02:49.697Z,65.78
2023-05-20T00:03:52.887Z,65.85
2023-05-20T00:04:55.882Z,65.78
2023-05-20T00:05:58.657Z,66.11
2023-05-20T00:07:01.437Z,66.58
2023-05-20T00:08:07.354Z,66.28
2023-05-20T00:09:10.911Z,66.15
2023-05-20T00:10:13.804Z,65.52
2023-05-20T00:11:16.616Z,65.76
2023-05-20T00:12:19.405Z,65.44
2023-05-20T00:13:22.445Z,65.53
2023-05-20T00:14:25.409Z,65.66
2023-05-20T00:15:28.280Z,66.25
2023-05-20T00:16:31.033Z,65.69
2023-05-20T00:17:33.840Z,65.82
2023-05-20T00:18:36.565Z,65.41
2023-05-20T00:19:39.523Z,65.59
2023-05-20T00:20:42.240Z,65.45
2023-05-20T00:21:45.005Z,65.54
2023-05-20T00:22:47.733Z,65.69
2023-05-20T00:23:50.842Z,65.64
2023-05-20T00:24:53.919Z,65.76
2023-05-20T00:25:58.451Z,65.53
2023-05-20T00:27:03.485Z,65.55
2023-05-20T00:28:06.606Z,65.77
2023-05-20T00:29:10.337Z,66.13
2023-05-20T00:30:13.391Z,66.51
2023-05-20T00:31:16.125Z,65.86
2023-05-20T00:32:18.923Z,65.70
2023-05-20T00:33:21.651Z,65.67
2023-05-20T00:34:24.509Z,65.78
2023-05-20T00:35:27.447Z,65.89
2023-05-20T00:36:31.325Z,66.16
2023-05-20T00:37:34.085Z,66.40
2023-05-20T00:38:36.844Z,67.00
2023-05-20T00:39:39.688Z,66.81
2023-05-20T00:40:42.520Z,65.89
2023-05-20T00:41:45.380Z,65.49
2023-05-20T00:42:48.050Z,65.94
2023-05-20T00:43:54.772Z,65.82
2023-05-20T00:44:58.082Z,65.69
2023-05-20T00:46:01.868Z,65.82
2023-05-20T00:47:04.735Z,65.83
2023-05-20T00:48:07.988Z,65.88
2023-05-20T00:49:10.935Z,65.85
2023-05-20T00:50:13.949Z,66.01
2023-05-20T00:51:17.045Z,65.99
2023-05-20T00:52:19.827Z,65.99
2023-05-20T00:53:22.951Z,66.41
2023-05-20T00:54:25.868Z,65.94
2023-05-20T00:55:28.857Z,65.90
2023-05-20T00:56:31.835Z,66.35
2023-05-20T00:57:34.646Z,67.17
2023-05-20T00:58:38.093Z,67.63
2023-05-20T00:59:42.869Z,67.33
2023-05-20T01:00:47.661Z,66.49
2023-05-20T01:01:50.684Z,66.28
2023-05-20T01:02:55.492Z,66.61
2023-05-20T01:03:59.212Z,66.59
2023-05-20T01:05:02.275Z,66.49
2023-05-20T01:06:05.421Z,66.46
2023-05-20T01:07:08.191Z,66.45
2023-05-20T01:08:10.958Z,66.44
2023-05-20T01:09:13.762Z,66.50
2023-05-20T01:10:16.646Z,66.35
2023-05-20T01:11:19.396Z,66.58
2023-05-20T01:12:30.476Z,66.96
2023-05-20T01:13:39.221Z,67.00
2023-05-20T01:14:57.236Z,67.63
2023-05-20T01:16:01.513Z,68.16
2023-05-20T01:17:09.705Z,68.38
2023-05-20T01:18:18.534Z,67.97
2023-05-20T01:19:34.066Z,67.22
2023-05-20T01:20:37.914Z,66.35
2023-05-20T01:21:41.473Z,66.27
2023-05-20T01:22:49.112Z,66.61
2023-05-20T01:23:52.393Z,67.33
2023-05-20T01:24:55.439Z,67.27
2023-05-20T01:25:58.233Z,67.44
2023-05-20T01:27:00.967Z,67.88
2023-05-20T01:28:04.008Z,67.42
2023-05-20T01:29:06.720Z,66.09
2023-05-20T01:30:09.890Z,66.43
2023-05-20T01:31:33.797Z,66.93
2023-05-20T01:32:41.365Z,66.50
2023-05-20T01:33:44.971Z,67.01
2023-05-20T01:34:49.961Z,67.01
2023-05-20T01:35:53.158Z,67.13
2023-05-20T01:36:56.375Z,66.59
2023-05-20T01:38:00.183Z,66.29
2023-05-20T01:39:03.504Z,66.76
2023-05-20T01:40:14.059Z,66.08
2023-05-20T01:41:17.374Z,65.96
2023-05-20T01:42:21.058Z,66.23
2023-05-20T01:43:24.624Z,66.53
2023-05-20T01:44:27.561Z,66.92
2023-05-20T01:45:31.288Z,67.16
2023-05-20T01:46:35.466Z,67.38
2023-05-20T01:47:38.698Z,66.64
2023-05-20T01:48:41.454Z,66.21
2023-05-20T01:49:46.366Z,66.24
2023-05-20T01:50:49.194Z,66.37
2023-05-20T01:51:52.942Z,66.45
2023-05-20T01:52:55.670Z,66.35
2023-05-20T01:53:58.715Z,66.34
2023-05-20T01:55:01.520Z,66.50
2023-05-20T01:56:05.438Z,66.67
2023-05-20T01:57:08.244Z,66.36
2023-05-20T01:58:11.071Z,65.95
2023-05-20T01:59:14.119Z,66.15
2023-05-20T02:00:17.070Z,66.20
2023-05-20T02:01:20.953Z,66.06
2023-05-20T02:02:23.938Z,66.00
2023-05-20T02:03:26.994Z,66.20
2023-05-20T02:04:30.797Z,65.87
2023-05-20T02:05:33.959Z,65.98
2023-05-20T02:06:37.066Z,65.98
2023-05-20T02:07:39.874Z,66.00
2023-05-20T02:08:42.604Z,65.96
2023-05-20T02:09:45.850Z,65.93
2023-05-20T02:10:49.395Z,66.04
2023-05-20T02:11:52.085Z,66.17
2023-05-20T02:12:54.785Z,66.29
2023-05-20T02:13:57.501Z,66.10
2023-05-20T02:15:00.390Z,66.19
2023-05-20T02:16:03.325Z,66.14
2023-05-20T02:17:06.041Z,65.88
2023-05-20T02:18:08.892Z,66.21
2023-05-20T02:19:12.889Z,65.89
2023-05-20T02:20:16.350Z,65.81
2023-05-20T02:21:19.140Z,65.94
2023-05-20T02:22:21.820Z,66.05
2023-05-20T02:23:24.552Z,65.92
2023-05-20T02:24:27.402Z,65.74
2023-05-20T02:25:30.104Z,65.78
2023-05-20T02:26:33.075Z,65.66
2023-05-20T02:27:37.036Z,65.81
2023-05-20T02:28:43.619Z,65.79
2023-05-20T02:29:46.501Z,65.88
2023-05-20T02:30:51.733Z,66.01
2023-05-20T02:31:54.440Z,66.25
2023-05-20T02:32:57.944Z,66.26
2023-05-20T02:34:01.202Z,65.88
2023-05-20T02:35:05.037Z,66.05
2023-05-20T02:36:08.115Z,65.94
2023-05-20T02:37:10.953Z,66.02
2023-05-20T02:38:13.762Z,65.88
2023-05-20T02:39:17.008Z,65.70
2023-05-20T02:40:19.791Z,65.55
2023-05-20T02:41:23.202Z,65.66
2023-05-20T02:42:26.004Z,65.91
2023-05-20T02:43:28.688Z,65.96
2023-05-20T02:44:31.519Z,65.82
2023-05-20T02:45:34.659Z,65.84
2023-05-20T02:46:37.536Z,65.56
2023-05-20T02:47:41.303Z,65.63
2023-05-20T02:48:44.081Z,65.75
2023-05-20T02:49:47.139Z,65.57
2023-05-20T02:50:49.919Z,65.54
2023-05-20T02:51:52.718Z,65.66
2023-05-20T02:52:55.916Z,65.52
2023-05-20T02:53:58.999Z,65.40
2023-05-20T02:55:02.098Z,65.59
2023-05-20T02:56:05.856Z,65.56
2023-05-20T02:57:08.679Z,65.57
2023-05-20T02:58:13.370Z,65.66
2023-05-20T02:59:16.267Z,65.68
2023-05-20T03:00:19.238Z,65.76
2023-05-20T03:01:22.021Z,65.51
2023-05-20T03:02:25.395Z,65.47
2023-05-20T03:03:28.349Z,65.46
2023-05-20T03:04:31.749Z,65.51
2023-05-20T03:05:37.982Z,65.57
2023-05-20T03:06:44.408Z,65.59
2023-05-20T03:07:48.902Z,65.61
2023-05-20T03:08:51.726Z,65.73
2023-05-20T03:09:54.445Z,65.98
2023-05-20T03:10:57.288Z,65.69
2023-05-20T03:12:00.045Z,65.55
2023-05-20T03:13:03.117Z,65.56
2023-05-20T03:14:05.866Z,65.70
2023-05-20T03:15:09.447Z,65.62
2023-05-20T03:16:13.245Z,65.52
2023-05-20T03:17:16.172Z,65.64
2023-05-20T03:18:19.206Z,65.62
2023-05-20T03:19:22.199Z,65.65
2023-05-20T03:20:27.053Z,65.39
2023-05-20T03:21:30.702Z,65.58
2023-05-20T03:22:33.635Z,65.74
2023-05-20T03:23:36.385Z,65.34
2023-05-20T03:24:39.133Z,65.28
2023-05-20T03:25:42.718Z,65.41
2023-05-20T03:26:46.550Z,65.52
2023-05-20T03:27:49.428Z,65.27
2023-05-20T03:28:52.376Z,65.35
2023-05-20T03:29:55.219Z,65.36
2023-05-20T03:30:58.203Z,65.43
2023-05-20T03:32:01.144Z,65.31
2023-05-20T03:33:05.914Z,65.19
2023-05-20T03:34:08.798Z,65.28
2023-05-20T03:35:12.031Z,65.24
2023-05-20T03:36:14.786Z,65.26
2023-05-20T03:37:17.715Z,65.21
2023-05-20T03:38:20.628Z,65.26
2023-05-20T03:39:23.390Z,65.37
2023-05-20T03:40:26.203Z,65.37
2023-05-20T03:41:29.257Z,65.36
2023-05-20T03:42:35.257Z,65.36
2023-05-20T03:43:37.957Z,65.45
2023-05-20T03:44:41.602Z,65.43
2023-05-20T03:45:44.462Z,65.45
2023-05-20T03:46:47.230Z,65.53
2023-05-20T03:47:50.508Z,65.49
2023-05-20T03:48:53.475Z,65.43
2023-05-20T03:49:56.324Z,65.39
2023-05-20T03:50:59.503Z,65.40
2023-05-20T03:52:03.522Z,65.43
2023-05-20T03:53:06.591Z,65.50
2023-05-20T03:54:13.827Z,65.38
2023-05-20T03:55:17.117Z,65.44
2023-05-20T03:56:19.973Z,65.42
2023-05-20T03:57:23.085Z,65.50
2023-05-20T03:58:26.393Z,65.47
2023-05-20T03:59:29.499Z,65.61
2023-05-20T04:00:32.290Z,65.55
2023-05-20T04:01:35.874Z,65.53
2023-05-20T04:02:38.907Z,65.54
2023-05-20T04:03:42.686Z,65.87
2023-05-20T04:04:45.631Z,65.79
2023-05-20T04:05:49.574Z,65.74
2023-05-20T04:06:56.282Z,65.69
2023-05-20T04:08:00.485Z,65.64
2023-05-20T04:09:03.991Z,65.62
2023-05-20T04:10:08.482Z,65.70
2023-05-20T04:11:11.393Z,65.78
2023-05-20T04:12:14.189Z,65.70
2023-05-20T04:13:17.310Z,65.85
2023-05-20T04:14:20.146Z,65.92
2023-05-20T04:15:24.018Z,65.62
2023-05-20T04:16:31.104Z,65.66
2023-05-20T04:17:34.022Z,65.92
2023-05-20T04:18:39.178Z,65.94
2023-05-20T04:19:42.697Z,65.49
2023-05-20T04:20:46.489Z,65.59
2023-05-20T04:21:49.903Z,65.58
2023-05-20T04:22:54.078Z,65.54
2023-05-20T04:23:57.345Z,65.48
2023-05-20T04:25:00.893Z,65.54
2023-05-20T04:26:03.811Z,65.56
2023-05-20T04:27:08.074Z,65.55
2023-05-20T04:28:14.126Z,65.48
2023-05-20T04:29:16.887Z,65.58
2023-05-20T04:30:21.753Z,65.54
2023-05-20T04:31:27.007Z,65.52
2023-05-20T04:32:30.314Z,65.55
2023-05-20T04:33:37.942Z,65.49
2023-05-20T04:34:40.939Z,65.43
2023-05-20T04:35:44.319Z,65.42
2023-05-20T04:36:47.232Z,65.42
2023-05-20T04:37:50.822Z,65.40
2023-05-20T04:38:53.974Z,65.32
2023-05-20T04:39:56.894Z,65.31
2023-05-20T04:40:59.883Z,65.29
2023-05-20T04:42:03.513Z,65.26
2023-05-20T04:43:06.282Z,65.20
2023-05-20T04:44:09.600Z,65.19
2023-05-20T04:45:12.538Z,65.16
2023-05-20T04:46:16.610Z,65.13
2023-05-20T04:47:19.418Z,65.12
2023-05-20T04:48:22.429Z,65.13
2023-05-20T04:49:29.118Z,65.13
2023-05-20T04:50:31.921Z,65.15
2023-05-20T04:51:35.450Z,65.19
2023-05-20T04:52:43.085Z,65.20
2023-05-20T04:53:47.150Z,65.11
2023-05-20T04:54:51.083Z,65.11
2023-05-20T04:55:57.289Z,65.13
2023-05-20T04:57:00.592Z,65.13
2023-05-20T04:58:04.028Z,65.11
2023-05-20T04:59:06.868Z,65.16
2023-05-20T05:00:10.713Z,65.21
2023-05-20T05:01:13.523Z,65.28
2023-05-20T05:02:17.845Z,65.33
2023-05-20T05:03:20.697Z,65.28
2023-05-20T05:04:24.015Z,65.36
2023-05-20T05:05:26.904Z,65.37
2023-05-20T05:06:29.819Z,65.36
2023-05-20T05:07:34.620Z,65.47
2023-05-20T05:08:37.349Z,65.43
2023-05-20T05:09:40.032Z,65.40
2023-05-20T05:10:42.752Z,65.38
2023-05-20T05:11:45.612Z,65.38
2023-05-20T05:12:48.622Z,65.39
2023-05-20T05:13:52.270Z,65.43
2023-05-20T05:14:58.688Z,65.43
2023-05-20T05:16:02.544Z,65.41
2023-05-20T05:17:06.223Z,65.43
2023-05-20T05:18:09.600Z,65.35
2023-05-20T05:19:13.679Z,65.35
2023-05-20T05:20:17.089Z,65.49
2023-05-20T05:21:19.806Z,65.52
2023-05-20T05:22:22.961Z,65.46
2023-05-20T05:23:25.926Z,65.45
2023-05-20T05:24:29.988Z,65.49
2023-05-20T05:25:33.591Z,65.54
2023-05-20T05:26:36.388Z,65.54
2023-05-20T05:27:39.680Z,65.52
2023-05-20T05:28:45.863Z,65.60
2023-05-20T05:29:49.368Z,65.63
2023-05-20T05:30:53.989Z,65.68
2023-05-20T05:31:56.761Z,65.90
2023-05-20T05:32:59.641Z,65.82
2023-05-20T05:34:02.530Z,65.87
2023-05-20T05:35:07.468Z,65.82
2023-05-20T05:36:11.083Z,65.77
2023-05-20T05:37:13.833Z,65.75
2023-05-20T05:38:16.836Z,65.90
2023-05-20T05:39:19.777Z,65.83
2023-05-20T05:40:23.284Z,65.77
2023-05-20T05:41:26.082Z,65.94
2023-05-20T05:42:28.848Z,66.24
2023-05-20T05:43:31.786Z,65.83
2023-05-20T05:44:35.783Z,65.67
2023-05-20T05:45:39.323Z,65.67
2023-05-20T05:46:42.080Z,65.67
2023-05-20T05:47:46.008Z,65.70
2023-05-20T05:48:50.852Z,65.76
2023-05-20T05:49:53.723Z,65.72
2023-05-20T05:50:56.676Z,65.59
2023-05-20T05:51:59.678Z,65.62
2023-05-20T05:53:02.464Z,65.62
2023-05-20T05:54:06.091Z,65.58
2023-05-20T05:55:09.780Z,65.54
2023-05-20T05:56:12.756Z,65.66
2023-05-20T05:57:15.961Z,65.51
2023-05-20T05:58:18.712Z,65.50
2023-05-20T05:59:24.857Z,65.46
2023-05-20T06:00:28.900Z,65.46
2023-05-20T06:01:31.721Z,65.47
2023-05-20T06:02:36.407Z,65.49
2023-05-20T06:03:39.571Z,65.44
2023-05-20T06:04:42.701Z,65.53
2023-05-20T06:05:46.222Z,65.42
2023-05-20T06:06:49.460Z,65.34
2023-05-20T06:07:52.310Z,65.33
2023-05-20T06:08:56.067Z,65.36
2023-05-20T06:09:59.528Z,65.34
2023-05-20T06:11:02.584Z,65.52
2023-05-20T06:12:07.066Z,65.32
2023-05-20T06:13:10.014Z,65.25
2023-05-20T06:14:13.191Z,65.23
2023-05-20T06:15:16.223Z,65.30
2023-05-20T06:16:19.205Z,65.27
2023-05-20T06:17:22.046Z,65.23
2023-05-20T06:18:25.128Z,65.34
2023-05-20T06:19:31.775Z,65.36
2023-05-20T06:20:34.635Z,65.16
2023-05-20T06:21:38.530Z,65.14
2023-05-20T06:22:41.286Z,65.19
2023-05-20T06:23:44.083Z,65.15
2023-05-20T06:24:48.789Z,65.08
2023-05-20T06:25:51.857Z,65.09
2023-05-20T06:26:55.161Z,65.14
2023-05-20T06:27:57.902Z,65.19
2023-05-20T06:29:00.844Z,65.23
2023-05-20T06:30:03.870Z,65.24
2023-05-20T06:31:06.762Z,65.29
2023-05-20T06:32:10.868Z,65.33
2023-05-20T06:33:14.174Z,65.32
2023-05-20T06:34:17.418Z,65.29
2023-05-20T06:35:20.353Z,65.36
2023-05-20T06:36:23.095Z,65.40
2023-05-20T06:37:26.004Z,65.39
2023-05-20T06:38:29.552Z,65.43
2023-05-20T06:39:32.337Z,65.45
2023-05-20T06:40:35.069Z,65.57
2023-05-20T06:41:40.697Z,65.54
2023-05-20T06:42:45.901Z,65.58
2023-05-20T06:43:51.183Z,65.52
2023-05-20T06:45:14.086Z,65.49
2023-05-20T06:46:26.121Z,65.48
2023-05-20T06:47:37.764Z,65.51
2023-05-20T06:48:40.783Z,65.48
2023-05-20T06:49:46.504Z,65.52
2023-05-20T06:50:50.188Z,65.50
2023-05-20T06:51:53.085Z,65.50
2023-05-20T06:52:55.981Z,65.48
2023-05-20T06:53:58.774Z,65.51
2023-05-20T06:55:02.082Z,65.51
2023-05-20T06:56:05.552Z,65.50
2023-05-20T06:57:09.013Z,65.57
2023-05-20T06:58:11.861Z,65.62
2023-05-20T06:59:15.317Z,65.71
2023-05-20T07:00:19.110Z,65.69
2023-05-20T07:01:21.949Z,65.70
2023-05-20T07:02:25.251Z,65.78
2023-05-20T07:03:28.046Z,65.74
2023-05-20T07:04:30.893Z,65.68
2023-05-20T07:05:34.177Z,65.64
2023-05-20T07:06:37.293Z,65.62
2023-05-20T07:07:40.193Z,65.58
2023-05-20T07:08:43.040Z,65.54
2023-05-20T07:09:45.945Z,65.48
2023-05-20T07:10:48.722Z,65.46
2023-05-20T07:11:54.938Z,65.41
2023-05-20T07:12:57.830Z,65.15
2023-05-20T07:14:01.338Z,64.98
2023-05-20T07:15:06.153Z,64.81
2023-05-20T07:16:09.831Z,64.75
2023-05-20T07:17:15.916Z,64.75
2023-05-20T07:18:21.588Z,64.76
2023-05-20T07:19:28.536Z,64.38
2023-05-20T07:20:31.404Z,64.06
2023-05-20T07:21:37.571Z,64.15
2023-05-20T07:23:02.689Z,64.19
2023-05-20T07:24:16.575Z,64.16
2023-05-20T07:25:19.566Z,64.15
2023-05-20T07:26:22.505Z,64.07
2023-05-20T07:27:25.287Z,64.07
2023-05-20T07:28:28.075Z,64.14
2023-05-20T07:29:31.348Z,64.04
2023-05-20T07:30:34.316Z,63.99
2023-05-20T07:31:53.762Z,63.79
2023-05-20T07:32:56.830Z,63.45
2023-05-20T07:33:59.763Z,63.54
2023-05-20T07:35:02.588Z,63.34
2023-05-20T07:36:05.972Z,63.18
2023-05-20T07:37:10.167Z,63.18
2023-05-20T07:38:13.597Z,63.12
2023-05-20T07:39:16.981Z,62.84
2023-05-20T07:40:20.095Z,62.73
2023-05-20T07:41:23.166Z,62.86
2023-05-20T07:42:26.442Z,62.87
2023-05-20T07:43:33.821Z,62.70
2023-05-20T07:44:38.943Z,62.86
2023-05-20T07:45:42.477Z,62.85
2023-05-20T07:46:45.408Z,62.82
2023-05-20T07:47:48.344Z,62.57
2023-05-20T07:48:51.095Z,62.53
2023-05-20T07:49:53.905Z,62.38
2023-05-20T07:50:59.504Z,62.33
2023-05-20T07:52:04.437Z,62.11
2023-05-20T07:53:08.229Z,62.20
2023-05-20T07:54:12.161Z,62.32
2023-05-20T07:55:15.751Z,62.26
2023-05-20T07:56:19.166Z,62.41
2023-05-20T07:57:23.606Z,62.11
2023-05-20T07:58:28.007Z,61.57
2023-05-20T07:59:31.729Z,61.79
2023-05-20T08:00:34.891Z,61.86
2023-05-20T08:01:41.787Z,61.51
2023-05-20T08:02:45.464Z,61.14
2023-05-20T08:03:51.220Z,61.10
2023-05-20T08:04:57.576Z,61.35
2023-05-20T08:06:00.841Z,61.44
2023-05-20T08:07:04.141Z,61.13
2023-05-20T08:08:17.268Z,60.62
2023-05-20T08:09:28.390Z,60.89
2023-05-20T08:10:31.653Z,60.49
2023-05-20T08:11:34.804Z,60.53
2023-05-20T08:12:38.217Z,60.77
2023-05-20T08:13:41.746Z,60.92
2023-05-20T08:14:45.566Z,60.96
2023-05-20T08:15:48.838Z,60.62
2023-05-20T08:16:54.623Z,60.70
2023-05-20T08:17:58.386Z,60.69
2023-05-20T08:19:01.329Z,60.70
2023-05-20T08:20:04.863Z,60.83
2023-05-20T08:21:08.369Z,60.71
2023-05-20T08:22:13.076Z,60.58
2023-05-20T08:23:16.325Z,60.72
2023-05-20T08:24:19.348Z,60.85
2023-05-20T08:25:23.885Z,60.96
2023-05-20T08:26:26.988Z,60.74
2023-05-20T08:27:29.848Z,60.39
2023-05-20T08:28:33.070Z,60.07
2023-05-20T08:29:36.262Z,59.51
2023-05-20T08:30:39.916Z,59.26
2023-05-20T08:31:42.904Z,59.10
2023-05-20T08:32:46.206Z,59.63
2023-05-20T08:33:49.222Z,60.06
2023-05-20T08:34:51.993Z,60.36
2023-05-20T08:35:54.815Z,60.32
2023-05-20T08:36:57.847Z,61.15
2023-05-20T08:38:02.128Z,61.66
2023-05-20T08:39:05.037Z,61.92
2023-05-20T08:40:09.812Z,61.02
2023-05-20T08:41:12.809Z,60.41
2023-05-20T08:42:20.056Z,60.31
2023-05-20T08:43:23.472Z,63.02
2023-05-20T08:44:28.081Z,62.78
2023-05-20T08:45:34.846Z,63.08
2023-05-20T08:46:41.536Z,63.07
2023-05-20T08:47:44.568Z,62.56
2023-05-20T08:48:48.007Z,62.43
2023-05-20T08:49:50.673Z,62.06
2023-05-20T08:50:53.722Z,62.02
2023-05-20T08:51:56.498Z,61.50
2023-05-20T08:52:59.620Z,61.35
2023-05-20T08:54:02.755Z,61.12
2023-05-20T08:55:07.927Z,61.24
2023-05-20T08:56:11.619Z,61.16
2023-05-20T08:57:14.374Z,61.37
2023-05-20T08:58:19.348Z,61.03
2023-05-20T08:59:22.339Z,60.75
2023-05-20T09:00:28.929Z,60.53
2023-05-20T09:01:32.390Z,60.36
2023-05-20T09:02:41.199Z,60.33
2023-05-20T09:03:44.554Z,60.42
2023-05-20T09:04:47.385Z,60.26
2023-05-20T09:05:50.294Z,60.17
2023-05-20T09:06:53.238Z,60.09
2023-05-20T09:08:09.774Z,60.19
2023-05-20T09:09:13.289Z,60.30
2023-05-20T09:10:16.565Z,60.25
2023-05-20T09:11:20.115Z,60.05
2023-05-20T09:12:23.013Z,60.06
2023-05-20T09:13:27.010Z,60.26
2023-05-20T09:14:30.722Z,60.27
2023-05-20T09:15:34.448Z,60.25
2023-05-20T09:16:39.734Z,59.89
2023-05-20T09:17:42.574Z,59.57
2023-05-20T09:18:46.344Z,59.59
2023-05-20T09:19:53.217Z,59.65
2023-05-20T09:20:56.612Z,59.78
2023-05-20T09:21:59.499Z,59.77
2023-05-20T09:23:03.033Z,59.73
2023-05-20T09:24:05.934Z,60.17
2023-05-20T09:25:09.518Z,60.20
2023-05-20T09:26:12.578Z,60.19
2023-05-20T09:27:16.080Z,60.32
2023-05-20T09:28:24.187Z,60.41
2023-05-20T09:29:27.038Z,60.89
2023-05-20T09:30:29.772Z,61.04
2023-05-20T09:31:34.171Z,61.13
2023-05-20T09:32:38.358Z,61.23
2023-05-20T09:33:41.429Z,61.11
2023-05-20T09:34:46.526Z,60.77
2023-05-20T09:35:49.475Z,61.38
2023-05-20T09:36:53.010Z,61.81
2023-05-20T09:37:56.884Z,61.47
2023-05-20T09:39:03.256Z,61.44
2023-05-20T09:40:09.877Z,61.62
2023-05-20T09:41:13.786Z,61.79
2023-05-20T09:42:21.093Z,61.79
2023-05-20T09:43:23.843Z,61.71
2023-05-20T09:44:28.893Z,61.53
2023-05-20T09:45:31.673Z,61.84
2023-05-20T09:46:34.777Z,61.86
2023-05-20T09:47:41.626Z,61.58
2023-05-20T09:48:44.728Z,61.01
2023-05-20T09:49:48.181Z,60.92
2023-05-20T09:50:51.873Z,61.03
2023-05-20T09:51:54.714Z,60.92
2023-05-20T09:53:01.839Z,60.95
2023-05-20T09:54:04.943Z,61.17
2023-05-20T09:55:10.410Z,61.06
2023-05-20T09:56:13.494Z,61.24
2023-05-20T09:57:16.358Z,61.36
2023-05-20T09:58:20.417Z,61.64
2023-05-20T09:59:23.687Z,61.78
2023-05-20T10:00:26.634Z,61.70
2023-05-20T10:01:29.637Z,61.41
2023-05-20T10:02:33.780Z,61.40
2023-05-20T10:03:37.040Z,61.55
2023-05-20T10:04:45.190Z,61.83
2023-05-20T10:06:10.795Z,62.26
2023-05-20T10:07:16.320Z,62.13
2023-05-20T10:08:28.068Z,61.94
2023-05-20T10:09:42.999Z,61.64
2023-05-20T10:10:45.960Z,62.00
2023-05-20T10:11:57.514Z,62.24
2023-05-20T10:13:00.302Z,62.24
2023-05-20T10:14:21.962Z,62.46
2023-05-20T10:15:43.605Z,62.27
2023-05-20T10:17:09.067Z,62.53
2023-05-20T10:18:14.670Z,61.55
2023-05-20T10:19:29.152Z,61.50
2023-05-20T10:20:32.062Z,61.40
2023-05-20T10:21:35.137Z,61.06
2023-05-20T10:22:38.008Z,61.00
2023-05-20T10:23:40.868Z,61.02
2023-05-20T10:24:44.324Z,61.33
2023-05-20T10:25:53.549Z,60.87
2023-05-20T10:26:57.658Z,60.93
2023-05-20T10:28:05.196Z,60.97
2023-05-20T10:29:18.155Z,61.12
2023-05-20T10:30:22.422Z,60.84
2023-05-20T10:31:25.812Z,60.86
2023-05-20T10:32:28.957Z,60.90
2023-05-20T10:33:41.343Z,60.93
2023-05-20T10:34:45.289Z,60.92
2023-05-20T10:35:50.568Z,60.72
2023-05-20T10:36:56.006Z,60.66
2023-05-20T10:38:10.420Z,60.70
2023-05-20T10:39:19.232Z,60.85
2023-05-20T10:40:22.736Z,61.27
2023-05-20T10:41:27.101Z,61.42
2023-05-20T10:42:32.518Z,61.74
2023-05-20T10:43:35.429Z,61.02
2023-05-20T10:44:45.136Z,61.03
2023-05-20T10:45:49.437Z,60.73
2023-05-20T10:47:23.606Z,60.64
2023-05-20T10:48:29.204Z,60.58
2023-05-20T10:49:34.039Z,60.72
2023-05-20T10:50:37.663Z,60.57
2023-05-20T10:51:41.918Z,60.60
2023-05-20T10:52:44.711Z,60.55
2023-05-20T10:53:47.742Z,60.96
2023-05-20T10:54:53.484Z,60.65
2023-05-20T10:55:56.666Z,60.68
2023-05-20T10:56:59.399Z,60.59
2023-05-20T10:58:02.075Z,60.67
2023-05-20T10:59:04.785Z,60.78
2023-05-20T11:00:10.806Z,60.84
2023-05-20T11:01:14.229Z,61.61
2023-05-20T11:02:17.321Z,61.44
2023-05-20T11:03:22.116Z,61.23
2023-05-20T11:04:24.952Z,60.70
2023-05-20T11:05:28.507Z,60.76
2023-05-20T11:06:31.651Z,60.83
2023-05-20T11:07:34.496Z,60.89
2023-05-20T11:08:37.236Z,61.04
2023-05-20T11:09:40.002Z,60.99
2023-05-20T11:10:43.444Z,60.77
2023-05-20T11:11:46.708Z,60.72
2023-05-20T11:12:49.582Z,60.70
2023-05-20T11:13:53.093Z,61.08
2023-05-20T11:14:56.043Z,61.08
2023-05-20T11:15:59.218Z,60.84
2023-05-20T11:17:02.102Z,60.58
2023-05-20T11:18:05.002Z,60.70
2023-05-20T11:19:08.769Z,60.54
2023-05-20T11:20:14.498Z,60.10
2023-05-20T11:21:18.133Z,59.55
2023-05-20T11:22:20.966Z,59.67
2023-05-20T11:23:23.796Z,59.43
2023-05-20T11:24:27.348Z,58.93
2023-05-20T11:25:30.177Z,59.03
2023-05-20T11:26:33.419Z,59.05
2023-05-20T11:27:39.132Z,59.21
2023-05-20T11:28:42.033Z,59.67
2023-05-20T11:29:45.005Z,59.94
2023-05-20T11:30:48.448Z,59.72
2023-05-20T11:31:52.198Z,59.84
2023-05-20T11:33:02.115Z,59.91
2023-05-20T11:34:04.894Z,59.91
2023-05-20T11:35:08.118Z,59.95
2023-05-20T11:36:26.364Z,60.19
2023-05-20T11:37:30.066Z,60.15
2023-05-20T11:38:32.832Z,59.72
2023-05-20T11:39:35.578Z,59.35
2023-05-20T11:40:50.550Z,59.02
2023-05-20T11:41:54.178Z,59.24
2023-05-20T11:43:03.971Z,58.89
2023-05-20T11:44:09.642Z,58.38
2023-05-20T11:45:13.707Z,58.26
2023-05-20T11:46:16.561Z,58.14
2023-05-20T11:47:24.737Z,58.51
2023-05-20T11:48:27.675Z,58.13
2023-05-20T11:49:31.007Z,57.91
2023-05-20T11:50:35.992Z,57.68
2023-05-20T11:51:39.712Z,57.48
2023-05-20T11:52:42.456Z,57.58
2023-05-20T11:53:46.909Z,56.05
2023-05-20T11:54:53.525Z,55.51
2023-05-20T11:55:57.609Z,55.12
2023-05-20T11:57:00.624Z,54.99
2023-05-20T11:58:03.461Z,55.30
2023-05-20T11:59:06.680Z,55.17
2023-05-20T12:00:10.848Z,55.26
2023-05-20T12:01:21.804Z,55.86
2023-05-20T12:02:26.056Z,56.19
2023-05-20T12:03:28.981Z,56.16
2023-05-20T12:04:31.889Z,55.63
2023-05-20T12:05:34.877Z,55.67
2023-05-20T12:06:37.687Z,55.91
2023-05-20T12:07:40.471Z,56.10
2023-05-20T12:08:43.221Z,55.80
2023-05-20T12:09:45.962Z,55.38
2023-05-20T12:10:49.104Z,54.96
2023-05-20T12:11:51.996Z,55.07
2023-05-20T12:12:54.738Z,55.28
2023-05-20T12:13:57.516Z,55.56
2023-05-20T12:15:00.275Z,55.78
2023-05-20T12:16:04.240Z,56.11
2023-05-20T12:17:07.464Z,55.93
2023-05-20T12:18:11.350Z,56.28
2023-05-20T12:19:14.228Z,56.44
2023-05-20T12:20:17.952Z,56.58
2023-05-20T12:21:20.939Z,56.97
2023-05-20T12:22:23.638Z,57.05
2023-05-20T12:23:26.621Z,57.25
2023-05-20T12:24:29.323Z,57.43
2023-05-20T12:25:32.201Z,57.50
2023-05-20T12:26:35.624Z,57.73
2023-05-20T12:27:38.885Z,57.81
2023-05-20T12:28:41.643Z,57.63
2023-05-20T12:29:44.401Z,57.63
2023-05-20T12:30:47.208Z,57.79
2023-05-20T12:31:51.033Z,57.75
2023-05-20T12:32:54.106Z,57.92
2023-05-20T12:33:56.949Z,58.23
2023-05-20T12:34:59.864Z,58.38
2023-05-20T12:36:02.717Z,58.41
2023-05-20T12:37:06.144Z,58.62
2023-05-20T12:38:09.346Z,58.36
2023-05-20T12:39:12.497Z,58.34
2023-05-20T12:40:15.284Z,58.51
2023-05-20T12:41:18.032Z,58.32
2023-05-20T12:42:20.799Z,58.85
2023-05-20T12:43:23.550Z,59.12
2023-05-20T12:44:26.718Z,59.10
2023-05-20T12:45:29.505Z,59.29
2023-05-20T12:46:32.284Z,59.67
2023-05-20T12:47:35.559Z,59.70
2023-05-20T12:48:39.950Z,59.42
2023-05-20T12:49:43.922Z,59.65
2023-05-20T12:50:46.630Z,59.95
2023-05-20T12:51:49.769Z,60.02
2023-05-20T12:52:53.209Z,60.07
2023-05-20T12:53:56.246Z,60.04
2023-05-20T12:54:58.991Z,60.13
2023-05-20T12:56:01.817Z,60.15
2023-05-20T12:57:05.789Z,60.28
2023-05-20T12:58:08.953Z,60.34
2023-05-20T12:59:11.636Z,60.32
2023-05-20T13:00:14.650Z,60.15
2023-05-20T13:01:17.423Z,60.35
2023-05-20T13:02:20.866Z,60.44
2023-05-20T13:03:23.911Z,60.39
2023-05-20T13:04:26.712Z,60.43
2023-05-20T13:05:29.456Z,60.30
2023-05-20T13:06:32.507Z,60.30
2023-05-20T13:07:35.256Z,60.31
2023-05-20T13:08:38.251Z,60.43
2023-05-20T13:09:41.036Z,60.61
2023-05-20T13:10:43.902Z,60.68
2023-05-20T13:11:46.607Z,60.73
2023-05-20T13:12:49.400Z,60.62
2023-05-20T13:13:54.074Z,60.65
2023-05-20T13:14:56.821Z,60.39
2023-05-20T13:15:59.488Z,60.46
2023-05-20T13:17:02.445Z,60.55
2023-05-20T13:18:07.162Z,60.75
2023-05-20T13:19:10.106Z,60.86
2023-05-20T13:20:13.160Z,60.69
2023-05-20T13:21:16.551Z,61.07
2023-05-20T13:22:19.542Z,61.12
2023-05-20T13:23:22.320Z,61.02
2023-05-20T13:24:25.881Z,61.07
2023-05-20T13:25:29.126Z,61.13
2023-05-20T13:26:31.854Z,61.06
2023-05-20T13:27:34.587Z,61.17
2023-05-20T13:28:37.301Z,61.20
2023-05-20T13:29:40.135Z,61.44
2023-05-20T13:30:42.867Z,61.53
2023-05-20T13:31:46.864Z,61.51
2023-05-20T13:32:49.570Z,62.00
2023-05-20T13:33:53.453Z,62.22
2023-05-20T13:34:57.100Z,62.45
2023-05-20T13:36:00.008Z,62.47
2023-05-20T13:37:02.742Z,62.49
2023-05-20T13:38:05.587Z,61.88
2023-05-20T13:39:08.436Z,61.46
2023-05-20T13:40:11.693Z,60.58
2023-05-20T13:41:14.533Z,59.58
2023-05-20T13:42:17.345Z,56.99
2023-05-20T13:43:20.058Z,55.99
2023-05-20T13:44:22.807Z,56.47
2023-05-20T13:45:25.753Z,56.66